sensor_id;sensor_type;location;lat;lon;timestamp;P1;durP1;ratioP1;P2;durP2;ratioP2
21539;SDS011;10931;52.164;5.518;2023-08-30T00:01:30;2.78;;;1.80;;
21539;SDS011;10931;52.164;5.518;2023-08-30T00:03:58;2.83;;;1.83;;
21539;SDS011;10931;52.164;5.518;2023-08-30T00:12:11;2.28;;;1.45;;
21539;SDS011;10931;52.164;5.518;2023-08-30T00:14:37;1.98;;;1.52;;
21539;SDS011;10931;52.164;5.518;2023-08-30T00:17:04;2.17;;;1.40;;
21539;SDS011;10931;52.164;5.518;2023-08-30T00:22:25;2.50;;;1.77;;
21539;SDS011;10931;52.164;5.518;2023-08-30T00:24:53;2.78;;;1.90;;
21539;SDS011;10931;52.164;5.518;2023-08-30T00:27:19;3.67;;;1.55;;
21539;SDS011;10931;52.164;5.518;2023-08-30T00:29:45;3.22;;;1.90;;
21539;SDS011;10931;52.164;5.518;2023-08-30T00:32:11;2.55;;;1.60;;
21539;SDS011;10931;52.164;5.518;2023-08-30T00:34:38;2.72;;;1.63;;
21539;SDS011;10931;52.164;5.518;2023-08-30T00:37:12;2.10;;;1.73;;
21539;SDS011;10931;52.164;5.518;2023-08-30T00:39:40;3.13;;;1.60;;
21539;SDS011;10931;52.164;5.518;2023-08-30T00:42:06;2.92;;;1.40;;
21539;SDS011;10931;52.164;5.518;2023-08-30T00:44:35;2.97;;;1.77;;
21539;SDS011;10931;52.164;5.518;2023-08-30T00:47:03;1.77;;;1.38;;
21539;SDS011;10931;52.164;5.518;2023-08-30T00:49:46;2.40;;;1.70;;
21539;SDS011;10931;52.164;5.518;2023-08-30T00:52:12;2.88;;;1.75;;
21539;SDS011;10931;52.164;5.518;2023-08-30T00:54:40;3.45;;;1.75;;
21539;SDS011;10931;52.164;5.518;2023-08-30T00:57:19;2.50;;;1.75;;
21539;SDS011;10931;52.164;5.518;2023-08-30T00:59:50;4.43;;;1.60;;
21539;SDS011;10931;52.164;5.518;2023-08-30T01:02:19;2.67;;;1.52;;
21539;SDS011;10931;52.164;5.518;2023-08-30T01:04:45;2.33;;;1.70;;
21539;SDS011;10931;52.164;5.518;2023-08-30T01:09:57;3.25;;;1.60;;
21539;SDS011;10931;52.164;5.518;2023-08-30T01:12:30;2.05;;;1.63;;
21539;SDS011;10931;52.164;5.518;2023-08-30T01:15:06;2.70;;;1.52;;
21539;SDS011;10931;52.164;5.518;2023-08-30T01:17:39;2.92;;;1.67;;
21539;SDS011;10931;52.164;5.518;2023-08-30T01:20:07;2.47;;;1.70;;
21539;SDS011;10931;52.164;5.518;2023-08-30T01:25:45;2.10;;;1.60;;
21539;SDS011;10931;52.164;5.518;2023-08-30T01:28:22;4.53;;;1.75;;
21539;SDS011;10931;52.164;5.518;2023-08-30T01:30:51;2.72;;;1.48;;
21539;SDS011;10931;52.164;5.518;2023-08-30T01:33:27;1.92;;;1.60;;
21539;SDS011;10931;52.164;5.518;2023-08-30T01:35:55;2.42;;;1.90;;
21539;SDS011;10931;52.164;5.518;2023-08-30T01:38:28;3.15;;;1.85;;
21539;SDS011;10931;52.164;5.518;2023-08-30T01:41:13;1.88;;;1.70;;
21539;SDS011;10931;52.164;5.518;2023-08-30T01:43:40;2.53;;;1.65;;
21539;SDS011;10931;52.164;5.518;2023-08-30T01:46:10;2.38;;;1.80;;
21539;SDS011;10931;52.164;5.518;2023-08-30T01:51:12;2.20;;;1.67;;
21539;SDS011;10931;52.164;5.518;2023-08-30T01:53:41;2.67;;;1.65;;
21539;SDS011;10931;52.164;5.518;2023-08-30T01:56:15;2.72;;;1.60;;
21539;SDS011;10931;52.164;5.518;2023-08-30T01:58:46;4.60;;;1.80;;
21539;SDS011;10931;52.164;5.518;2023-08-30T02:01:12;2.60;;;1.48;;
21539;SDS011;10931;52.164;5.518;2023-08-30T02:03:44;3.83;;;1.95;;
21539;SDS011;10931;52.164;5.518;2023-08-30T02:06:26;3.28;;;1.98;;
21539;SDS011;10931;52.164;5.518;2023-08-30T02:09:40;4.32;;;2.22;;
21539;SDS011;10931;52.164;5.518;2023-08-30T02:12:14;2.55;;;1.60;;
21539;SDS011;10931;52.164;5.518;2023-08-30T02:14:43;1.92;;;1.52;;
21539;SDS011;10931;52.164;5.518;2023-08-30T02:17:15;2.55;;;1.63;;
21539;SDS011;10931;52.164;5.518;2023-08-30T02:19:43;3.35;;;1.73;;
21539;SDS011;10931;52.164;5.518;2023-08-30T02:22:13;2.90;;;1.67;;
21539;SDS011;10931;52.164;5.518;2023-08-30T02:24:40;2.63;;;1.77;;
21539;SDS011;10931;52.164;5.518;2023-08-30T02:27:13;2.45;;;1.50;;
21539;SDS011;10931;52.164;5.518;2023-08-30T02:29:41;2.08;;;1.75;;
21539;SDS011;10931;52.164;5.518;2023-08-30T02:32:07;3.47;;;1.67;;
21539;SDS011;10931;52.164;5.518;2023-08-30T02:34:35;2.33;;;1.50;;
21539;SDS011;10931;52.164;5.518;2023-08-30T02:37:03;3.13;;;1.67;;
21539;SDS011;10931;52.164;5.518;2023-08-30T02:39:32;2.58;;;1.63;;
21539;SDS011;10931;52.164;5.518;2023-08-30T02:41:59;5.78;;;1.88;;
21539;SDS011;10931;52.164;5.518;2023-08-30T02:44:24;2.35;;;1.65;;
21539;SDS011;10931;52.164;5.518;2023-08-30T02:46:58;2.35;;;1.73;;
21539;SDS011;10931;52.164;5.518;2023-08-30T02:49:24;2.47;;;1.73;;
21539;SDS011;10931;52.164;5.518;2023-08-30T02:51:50;2.58;;;1.60;;
21539;SDS011;10931;52.164;5.518;2023-08-30T02:54:16;3.55;;;2.03;;
21539;SDS011;10931;52.164;5.518;2023-08-30T02:59:15;3.17;;;2.05;;
21539;SDS011;10931;52.164;5.518;2023-08-30T03:01:41;2.97;;;2.03;;
21539;SDS011;10931;52.164;5.518;2023-08-30T03:04:17;2.38;;;1.80;;
21539;SDS011;10931;52.164;5.518;2023-08-30T03:06:43;2.58;;;1.73;;
21539;SDS011;10931;52.164;5.518;2023-08-30T03:09:21;2.58;;;1.85;;
21539;SDS011;10931;52.164;5.518;2023-08-30T03:12:00;2.80;;;1.90;;
21539;SDS011;10931;52.164;5.518;2023-08-30T03:14:26;3.20;;;1.90;;
21539;SDS011;10931;52.164;5.518;2023-08-30T03:16:52;3.67;;;1.83;;
21539;SDS011;10931;52.164;5.518;2023-08-30T03:19:18;3.08;;;2.00;;
21539;SDS011;10931;52.164;5.518;2023-08-30T03:21:44;4.88;;;2.60;;
21539;SDS011;10931;52.164;5.518;2023-08-30T03:24:15;3.40;;;1.95;;
21539;SDS011;10931;52.164;5.518;2023-08-30T03:26:43;3.80;;;2.20;;
21539;SDS011;10931;52.164;5.518;2023-08-30T03:29:09;3.58;;;1.90;;
21539;SDS011;10931;52.164;5.518;2023-08-30T03:31:35;2.42;;;1.92;;
21539;SDS011;10931;52.164;5.518;2023-08-30T03:34:08;4.95;;;2.30;;
21539;SDS011;10931;52.164;5.518;2023-08-30T03:36:34;3.70;;;2.10;;
21539;SDS011;10931;52.164;5.518;2023-08-30T03:44:48;3.50;;;2.15;;
21539;SDS011;10931;52.164;5.518;2023-08-30T03:50:02;3.15;;;2.28;;
21539;SDS011;10931;52.164;5.518;2023-08-30T03:52:28;4.68;;;2.40;;
21539;SDS011;10931;52.164;5.518;2023-08-30T03:54:54;2.80;;;2.17;;
21539;SDS011;10931;52.164;5.518;2023-08-30T03:57:30;3.97;;;2.50;;
21539;SDS011;10931;52.164;5.518;2023-08-30T03:59:58;2.33;;;1.95;;
21539;SDS011;10931;52.164;5.518;2023-08-30T04:02:24;3.53;;;2.35;;
21539;SDS011;10931;52.164;5.518;2023-08-30T04:04:52;3.45;;;2.45;;
21539;SDS011;10931;52.164;5.518;2023-08-30T04:07:20;2.83;;;2.10;;
21539;SDS011;10931;52.164;5.518;2023-08-30T04:10:04;3.38;;;2.17;;
21539;SDS011;10931;52.164;5.518;2023-08-30T04:12:33;4.95;;;2.50;;
21539;SDS011;10931;52.164;5.518;2023-08-30T04:15:12;3.20;;;2.50;;
21539;SDS011;10931;52.164;5.518;2023-08-30T04:17:40;3.35;;;2.38;;
21539;SDS011;10931;52.164;5.518;2023-08-30T04:20:06;2.55;;;2.10;;
21539;SDS011;10931;52.164;5.518;2023-08-30T04:22:35;3.97;;;2.40;;
21539;SDS011;10931;52.164;5.518;2023-08-30T04:25:03;4.30;;;2.47;;
21539;SDS011;10931;52.164;5.518;2023-08-30T04:32:35;5.57;;;3.08;;
21539;SDS011;10931;52.164;5.518;2023-08-30T04:35:01;4.93;;;2.15;;
21539;SDS011;10931;52.164;5.518;2023-08-30T04:37:29;5.75;;;2.83;;
21539;SDS011;10931;52.164;5.518;2023-08-30T04:39:59;5.68;;;2.85;;
21539;SDS011;10931;52.164;5.518;2023-08-30T04:42:28;5.50;;;2.60;;
21539;SDS011;10931;52.164;5.518;2023-08-30T04:44:54;4.10;;;3.03;;
21539;SDS011;10931;52.164;5.518;2023-08-30T04:47:21;4.10;;;3.17;;
21539;SDS011;10931;52.164;5.518;2023-08-30T04:49:50;4.15;;;2.90;;
21539;SDS011;10931;52.164;5.518;2023-08-30T04:52:17;6.18;;;2.50;;
21539;SDS011;10931;52.164;5.518;2023-08-30T04:54:45;3.70;;;2.65;;
21539;SDS011;10931;52.164;5.518;2023-08-30T04:57:13;3.95;;;2.63;;
21539;SDS011;10931;52.164;5.518;2023-08-30T04:59:56;4.60;;;2.97;;
21539;SDS011;10931;52.164;5.518;2023-08-30T05:02:22;3.85;;;2.75;;
21539;SDS011;10931;52.164;5.518;2023-08-30T05:07:32;4.30;;;2.85;;
21539;SDS011;10931;52.164;5.518;2023-08-30T05:10:02;4.80;;;2.75;;
21539;SDS011;10931;52.164;5.518;2023-08-30T05:15:24;6.15;;;3.03;;
21539;SDS011;10931;52.164;5.518;2023-08-30T05:17:52;6.00;;;2.92;;
21539;SDS011;10931;52.164;5.518;2023-08-30T05:20:28;5.25;;;2.95;;
21539;SDS011;10931;52.164;5.518;2023-08-30T05:22:55;7.90;;;3.20;;
21539;SDS011;10931;52.164;5.518;2023-08-30T09:09:38;2.90;;;1.45;;
21539;SDS011;10931;52.164;5.518;2023-08-30T09:12:06;2.58;;;1.70;;
21539;SDS011;10931;52.164;5.518;2023-08-30T09:14:32;3.65;;;2.10;;
21539;SDS011;10931;52.164;5.518;2023-08-30T09:17:03;2.10;;;1.65;;
21539;SDS011;10931;52.164;5.518;2023-08-30T09:19:29;2.58;;;1.60;;
21539;SDS011;10931;52.164;5.518;2023-08-30T09:21:59;2.25;;;1.65;;
21539;SDS011;10931;52.164;5.518;2023-08-30T09:24:25;2.30;;;1.60;;
21539;SDS011;10931;52.164;5.518;2023-08-30T09:27:05;1.85;;;1.30;;
21539;SDS011;10931;52.164;5.518;2023-08-30T09:29:34;2.58;;;1.45;;
21539;SDS011;10931;52.164;5.518;2023-08-30T09:32:00;2.72;;;1.50;;
21539;SDS011;10931;52.164;5.518;2023-08-30T09:34:28;3.88;;;1.60;;
21539;SDS011;10931;52.164;5.518;2023-08-30T09:37:06;2.17;;;1.63;;
21539;SDS011;10931;52.164;5.518;2023-08-30T09:39:31;1.73;;;1.42;;
21539;SDS011;10931;52.164;5.518;2023-08-30T09:41:58;2.33;;;1.63;;
21539;SDS011;10931;52.164;5.518;2023-08-30T09:44:42;2.25;;;1.40;;
21539;SDS011;10931;52.164;5.518;2023-08-30T09:47:08;2.15;;;1.50;;
21539;SDS011;10931;52.164;5.518;2023-08-30T09:49:49;2.10;;;1.40;;
21539;SDS011;10931;52.164;5.518;2023-08-30T09:52:24;1.48;;;1.13;;
21539;SDS011;10931;52.164;5.518;2023-08-30T09:54:51;1.98;;;1.42;;
21539;SDS011;10931;52.164;5.518;2023-08-30T09:57:17;2.95;;;1.48;;
21539;SDS011;10931;52.164;5.518;2023-08-30T09:59:47;1.80;;;1.38;;
21539;SDS011;10931;52.164;5.518;2023-08-30T10:02:16;2.63;;;1.50;;
21539;SDS011;10931;52.164;5.518;2023-08-30T10:05:08;2.25;;;1.52;;
21539;SDS011;10931;52.164;5.518;2023-08-30T10:07:40;2.05;;;1.40;;
21539;SDS011;10931;52.164;5.518;2023-08-30T10:10:16;2.63;;;1.58;;
21539;SDS011;10931;52.164;5.518;2023-08-30T10:12:44;2.20;;;1.38;;
21539;SDS011;10931;52.164;5.518;2023-08-30T10:15:16;3.85;;;1.58;;
21539;SDS011;10931;52.164;5.518;2023-08-30T10:20:40;2.65;;;1.38;;
21539;SDS011;10931;52.164;5.518;2023-08-30T10:23:07;1.63;;;1.27;;
21539;SDS011;10931;52.164;5.518;2023-08-30T10:25:37;1.88;;;1.40;;
21539;SDS011;10931;52.164;5.518;2023-08-30T10:30:58;2.85;;;1.55;;
21539;SDS011;10931;52.164;5.518;2023-08-30T10:35:54;2.63;;;1.30;;
21539;SDS011;10931;52.164;5.518;2023-08-30T10:38:32;2.20;;;1.35;;
21539;SDS011;10931;52.164;5.518;2023-08-30T10:41:08;1.85;;;1.17;;
21539;SDS011;10931;52.164;5.518;2023-08-30T10:43:35;2.45;;;1.40;;
21539;SDS011;10931;52.164;5.518;2023-08-30T10:49:18;1.63;;;1.35;;
21539;SDS011;10931;52.164;5.518;2023-08-30T10:52:03;2.47;;;1.30;;
21539;SDS011;10931;52.164;5.518;2023-08-30T11:00:55;2.72;;;1.20;;
21539;SDS011;10931;52.164;5.518;2023-08-30T11:03:22;2.30;;;1.48;;
21539;SDS011;10931;52.164;5.518;2023-08-30T11:08:59;1.67;;;1.20;;
21539;SDS011;10931;52.164;5.518;2023-08-30T11:14:17;1.30;;;1.10;;
21539;SDS011;10931;52.164;5.518;2023-08-30T11:16:52;2.28;;;1.40;;
21539;SDS011;10931;52.164;5.518;2023-08-30T11:19:29;1.67;;;1.08;;
21539;SDS011;10931;52.164;5.518;2023-08-30T11:22:12;5.75;;;1.50;;
21539;SDS011;10931;52.164;5.518;2023-08-30T11:24:39;3.38;;;1.27;;
21539;SDS011;10931;52.164;5.518;2023-08-30T11:27:05;2.58;;;1.40;;
21539;SDS011;10931;52.164;5.518;2023-08-30T11:29:47;2.45;;;1.42;;
21539;SDS011;10931;52.164;5.518;2023-08-30T11:32:16;7.53;;;1.30;;
21539;SDS011;10931;52.164;5.518;2023-08-30T11:34:42;1.98;;;1.23;;
21539;SDS011;10931;52.164;5.518;2023-08-30T11:37:09;11.98;;;1.27;;
21539;SDS011;10931;52.164;5.518;2023-08-30T11:42:06;2.35;;;1.25;;
21539;SDS011;10931;52.164;5.518;2023-08-30T11:44:34;4.25;;;1.30;;
21539;SDS011;10931;52.164;5.518;2023-08-30T11:47:09;4.82;;;1.40;;
21539;SDS011;10931;52.164;5.518;2023-08-30T11:49:35;8.23;;;2.17;;
21539;SDS011;10931;52.164;5.518;2023-08-30T11:52:01;15.60;;;1.55;;
21539;SDS011;10931;52.164;5.518;2023-08-30T11:54:27;6.60;;;1.40;;
21539;SDS011;10931;52.164;5.518;2023-08-30T11:59:34;6.10;;;1.65;;
21539;SDS011;10931;52.164;5.518;2023-08-30T12:02:00;10.73;;;1.60;;
21539;SDS011;10931;52.164;5.518;2023-08-30T12:04:26;17.38;;;2.08;;
21539;SDS011;10931;52.164;5.518;2023-08-30T12:06:52;4.22;;;2.00;;
21539;SDS011;10931;52.164;5.518;2023-08-30T12:09:18;8.63;;;1.30;;
21539;SDS011;10931;52.164;5.518;2023-08-30T12:11:48;5.63;;;1.38;;
21539;SDS011;10931;52.164;5.518;2023-08-30T12:14:14;15.25;;;1.90;;
21539;SDS011;10931;52.164;5.518;2023-08-30T12:16:40;8.57;;;2.25;;
21539;SDS011;10931;52.164;5.518;2023-08-30T12:19:09;10.88;;;1.52;;
21539;SDS011;10931;52.164;5.518;2023-08-30T12:21:39;12.23;;;1.90;;
21539;SDS011;10931;52.164;5.518;2023-08-30T12:24:06;12.52;;;1.50;;
21539;SDS011;10931;52.164;5.518;2023-08-30T12:26:35;15.57;;;1.85;;
21539;SDS011;10931;52.164;5.518;2023-08-30T12:29:05;6.05;;;1.88;;
21539;SDS011;10931;52.164;5.518;2023-08-30T12:31:42;19.27;;;2.10;;
21539;SDS011;10931;52.164;5.518;2023-08-30T12:34:08;9.05;;;1.45;;
21539;SDS011;10931;52.164;5.518;2023-08-30T12:36:34;8.50;;;1.65;;
21539;SDS011;10931;52.164;5.518;2023-08-30T12:38:59;7.38;;;2.20;;
21539;SDS011;10931;52.164;5.518;2023-08-30T12:41:28;17.75;;;2.55;;
21539;SDS011;10931;52.164;5.518;2023-08-30T12:43:53;13.88;;;1.80;;
21539;SDS011;10931;52.164;5.518;2023-08-30T12:46:19;13.38;;;2.05;;
21539;SDS011;10931;52.164;5.518;2023-08-30T12:48:45;14.80;;;2.58;;
21539;SDS011;10931;52.164;5.518;2023-08-30T12:51:10;10.45;;;1.85;;
21539;SDS011;10931;52.164;5.518;2023-08-30T12:53:38;10.55;;;1.95;;
21539;SDS011;10931;52.164;5.518;2023-08-30T12:56:04;10.13;;;1.42;;
21539;SDS011;10931;52.164;5.518;2023-08-30T12:58:30;16.33;;;2.45;;
21539;SDS011;10931;52.164;5.518;2023-08-30T13:00:55;15.32;;;2.40;;
21539;SDS011;10931;52.164;5.518;2023-08-30T13:03:22;15.70;;;2.15;;
21539;SDS011;10931;52.164;5.518;2023-08-30T13:05:50;9.25;;;1.58;;
21539;SDS011;10931;52.164;5.518;2023-08-30T13:11:28;11.93;;;2.10;;
21539;SDS011;10931;52.164;5.518;2023-08-30T13:13:57;8.80;;;1.65;;
21539;SDS011;10931;52.164;5.518;2023-08-30T13:16:23;13.02;;;1.98;;
21539;SDS011;10931;52.164;5.518;2023-08-30T13:18:49;7.88;;;1.55;;
21539;SDS011;10931;52.164;5.518;2023-08-30T13:21:15;8.55;;;1.50;;
21539;SDS011;10931;52.164;5.518;2023-08-30T13:23:41;13.52;;;1.90;;
21539;SDS011;10931;52.164;5.518;2023-08-30T13:26:07;7.47;;;1.67;;
21539;SDS011;10931;52.164;5.518;2023-08-30T13:28:32;9.50;;;1.63;;
21539;SDS011;10931;52.164;5.518;2023-08-30T13:30:59;7.90;;;1.42;;
21539;SDS011;10931;52.164;5.518;2023-08-30T13:33:25;10.02;;;1.58;;
21539;SDS011;10931;52.164;5.518;2023-08-30T13:35:52;7.13;;;1.40;;
21539;SDS011;10931;52.164;5.518;2023-08-30T13:38:20;5.57;;;1.48;;
21539;SDS011;10931;52.164;5.518;2023-08-30T13:40:47;11.52;;;1.60;;
21539;SDS011;10931;52.164;5.518;2023-08-30T13:43:13;5.97;;;1.60;;
21539;SDS011;10931;52.164;5.518;2023-08-30T13:45:39;6.32;;;1.25;;
21539;SDS011;10931;52.164;5.518;2023-08-30T13:48:05;7.95;;;1.73;;
21539;SDS011;10931;52.164;5.518;2023-08-30T13:50:30;5.38;;;1.45;;
21539;SDS011;10931;52.164;5.518;2023-08-30T13:53:04;9.68;;;1.90;;
21539;SDS011;10931;52.164;5.518;2023-08-30T13:55:30;7.63;;;1.45;;
21539;SDS011;10931;52.164;5.518;2023-08-30T13:57:58;8.57;;;1.40;;
21539;SDS011;10931;52.164;5.518;2023-08-30T14:00:24;7.43;;;1.27;;
21539;SDS011;10931;52.164;5.518;2023-08-30T14:02:55;6.88;;;1.20;;
21539;SDS011;10931;52.164;5.518;2023-08-30T14:05:35;6.68;;;1.50;;
21539;SDS011;10931;52.164;5.518;2023-08-30T14:08:01;5.10;;;1.33;;
21539;SDS011;10931;52.164;5.518;2023-08-30T14:10:27;5.55;;;1.40;;
21539;SDS011;10931;52.164;5.518;2023-08-30T14:12:53;8.90;;;1.70;;
21539;SDS011;10931;52.164;5.518;2023-08-30T14:15:23;5.32;;;1.55;;
21539;SDS011;10931;52.164;5.518;2023-08-30T14:17:49;3.28;;;1.20;;
21539;SDS011;10931;52.164;5.518;2023-08-30T14:20:19;6.25;;;1.40;;
21539;SDS011;10931;52.164;5.518;2023-08-30T14:22:45;4.57;;;1.65;;
21539;SDS011;10931;52.164;5.518;2023-08-30T14:25:16;10.40;;;1.40;;
21539;SDS011;10931;52.164;5.518;2023-08-30T14:27:42;2.65;;;1.02;;
21539;SDS011;10931;52.164;5.518;2023-08-30T14:30:08;5.07;;;1.02;;
21539;SDS011;10931;52.164;5.518;2023-08-30T14:32:42;3.67;;;0.98;;
21539;SDS011;10931;52.164;5.518;2023-08-30T14:35:08;6.55;;;1.40;;
21539;SDS011;10931;52.164;5.518;2023-08-30T14:37:36;4.78;;;0.98;;
21539;SDS011;10931;52.164;5.518;2023-08-30T14:40:04;3.17;;;1.10;;
21539;SDS011;10931;52.164;5.518;2023-08-30T14:42:32;4.72;;;1.15;;
21539;SDS011;10931;52.164;5.518;2023-08-30T14:45:00;2.25;;;0.98;;
21539;SDS011;10931;52.164;5.518;2023-08-30T14:47:28;3.10;;;0.88;;
21539;SDS011;10931;52.164;5.518;2023-08-30T14:49:58;2.47;;;0.80;;
21539;SDS011;10931;52.164;5.518;2023-08-30T14:52:28;3.55;;;1.00;;
21539;SDS011;10931;52.164;5.518;2023-08-30T14:54:54;2.92;;;0.93;;
21539;SDS011;10931;52.164;5.518;2023-08-30T14:57:22;3.03;;;1.25;;
21539;SDS011;10931;52.164;5.518;2023-08-30T14:59:57;4.03;;;1.10;;
21539;SDS011;10931;52.164;5.518;2023-08-30T15:02:32;2.25;;;0.73;;
21539;SDS011;10931;52.164;5.518;2023-08-30T15:04:58;4.60;;;1.00;;
21539;SDS011;10931;52.164;5.518;2023-08-30T15:07:24;1.23;;;0.65;;
21539;SDS011;10931;52.164;5.518;2023-08-30T15:09:55;2.10;;;0.98;;
21539;SDS011;10931;52.164;5.518;2023-08-30T15:12:28;4.20;;;1.02;;
21539;SDS011;10931;52.164;5.518;2023-08-30T15:14:54;4.07;;;1.13;;
21539;SDS011;10931;52.164;5.518;2023-08-30T15:17:25;2.72;;;0.80;;
21539;SDS011;10931;52.164;5.518;2023-08-30T15:19:50;3.72;;;1.10;;
21539;SDS011;10931;52.164;5.518;2023-08-30T15:22:19;2.83;;;0.90;;
21539;SDS011;10931;52.164;5.518;2023-08-30T15:24:47;3.20;;;1.00;;
21539;SDS011;10931;52.164;5.518;2023-08-30T15:27:13;4.00;;;0.93;;
21539;SDS011;10931;52.164;5.518;2023-08-30T15:29:38;3.05;;;0.98;;
21539;SDS011;10931;52.164;5.518;2023-08-30T15:40:03;2.78;;;0.95;;
21539;SDS011;10931;52.164;5.518;2023-08-30T15:42:30;1.77;;;0.80;;
21539;SDS011;10931;52.164;5.518;2023-08-30T15:45:07;4.35;;;1.05;;
21539;SDS011;10931;52.164;5.518;2023-08-30T15:47:36;2.53;;;0.80;;
21539;SDS011;10931;52.164;5.518;2023-08-30T15:50:04;1.90;;;0.88;;
21539;SDS011;10931;52.164;5.518;2023-08-30T15:52:32;2.53;;;0.98;;
21539;SDS011;10931;52.164;5.518;2023-08-30T15:55:01;2.95;;;1.20;;
21539;SDS011;10931;52.164;5.518;2023-08-30T15:57:30;1.25;;;0.80;;
21539;SDS011;10931;52.164;5.518;2023-08-30T15:59:56;3.28;;;1.00;;
21539;SDS011;10931;52.164;5.518;2023-08-30T16:02:24;1.98;;;1.00;;
21539;SDS011;10931;52.164;5.518;2023-08-30T16:04:53;1.77;;;0.90;;
21539;SDS011;10931;52.164;5.518;2023-08-30T16:07:21;3.63;;;0.95;;
21539;SDS011;10931;52.164;5.518;2023-08-30T16:09:53;2.22;;;1.00;;
21539;SDS011;10931;52.164;5.518;2023-08-30T16:12:21;1.05;;;0.80;;
21539;SDS011;10931;52.164;5.518;2023-08-30T16:14:52;2.60;;;0.98;;
21539;SDS011;10931;52.164;5.518;2023-08-30T16:17:41;1.45;;;0.50;;
21539;SDS011;10931;52.164;5.518;2023-08-30T16:20:09;2.53;;;1.20;;
21539;SDS011;10931;52.164;5.518;2023-08-30T16:22:38;1.30;;;0.80;;
21539;SDS011;10931;52.164;5.518;2023-08-30T16:25:04;1.65;;;0.93;;
21539;SDS011;10931;52.164;5.518;2023-08-30T16:27:36;3.50;;;1.00;;
21539;SDS011;10931;52.164;5.518;2023-08-30T16:30:01;3.65;;;0.80;;
21539;SDS011;10931;52.164;5.518;2023-08-30T16:32:28;1.60;;;0.70;;
21539;SDS011;10931;52.164;5.518;2023-08-30T16:35:03;2.97;;;1.15;;
21539;SDS011;10931;52.164;5.518;2023-08-30T16:37:41;1.25;;;0.60;;
21539;SDS011;10931;52.164;5.518;2023-08-30T16:40:14;2.47;;;1.00;;
21539;SDS011;10931;52.164;5.518;2023-08-30T16:42:43;2.15;;;1.17;;
21539;SDS011;10931;52.164;5.518;2023-08-30T16:45:09;2.60;;;1.15;;
21539;SDS011;10931;52.164;5.518;2023-08-30T16:47:35;3.67;;;1.00;;
21539;SDS011;10931;52.164;5.518;2023-08-30T16:50:03;2.35;;;0.98;;
21539;SDS011;10931;52.164;5.518;2023-08-30T16:52:34;3.13;;;1.00;;
21539;SDS011;10931;52.164;5.518;2023-08-30T16:55:04;2.33;;;0.77;;
21539;SDS011;10931;52.164;5.518;2023-08-30T16:57:32;3.65;;;1.25;;
21539;SDS011;10931;52.164;5.518;2023-08-30T17:00:40;3.15;;;1.00;;
21539;SDS011;10931;52.164;5.518;2023-08-30T17:02:54;0.75;;;0.60;;
21539;SDS011;10931;52.164;5.518;2023-08-30T17:05:24;1.90;;;0.80;;
21539;SDS011;10931;52.164;5.518;2023-08-30T17:29:59;1.58;;;0.60;;
21539;SDS011;10931;52.164;5.518;2023-08-30T17:32:25;1.23;;;0.77;;
21539;SDS011;10931;52.164;5.518;2023-08-30T17:34:51;1.58;;;0.82;;
21539;SDS011;10931;52.164;5.518;2023-08-30T17:37:16;1.00;;;0.70;;
21539;SDS011;10931;52.164;5.518;2023-08-30T17:39:44;2.60;;;0.70;;
21539;SDS011;10931;52.164;5.518;2023-08-30T17:42:10;1.35;;;0.70;;
21539;SDS011;10931;52.164;5.518;2023-08-30T17:44:36;2.17;;;0.80;;
21539;SDS011;10931;52.164;5.518;2023-08-30T17:47:04;1.75;;;1.00;;
21539;SDS011;10931;52.164;5.518;2023-08-30T17:49:30;1.95;;;0.82;;
21539;SDS011;10931;52.164;5.518;2023-08-30T17:52:06;2.67;;;0.80;;
21539;SDS011;10931;52.164;5.518;2023-08-30T17:54:34;1.75;;;0.60;;
21539;SDS011;10931;52.164;5.518;2023-08-30T17:57:23;1.30;;;0.65;;
21539;SDS011;10931;52.164;5.518;2023-08-30T17:59:49;2.60;;;0.77;;
21539;SDS011;10931;52.164;5.518;2023-08-30T18:02:15;2.05;;;0.75;;
21539;SDS011;10931;52.164;5.518;2023-08-30T18:04:41;1.67;;;0.85;;
21539;SDS011;10931;52.164;5.518;2023-08-30T18:07:14;1.60;;;0.70;;
21539;SDS011;10931;52.164;5.518;2023-08-30T18:09:54;1.70;;;0.63;;
21539;SDS011;10931;52.164;5.518;2023-08-30T18:12:25;1.00;;;0.73;;
21539;SDS011;10931;52.164;5.518;2023-08-30T18:15:00;2.25;;;0.80;;
21539;SDS011;10931;52.164;5.518;2023-08-30T18:17:37;1.67;;;0.90;;
21539;SDS011;10931;52.164;5.518;2023-08-30T18:20:09;1.75;;;0.60;;
21539;SDS011;10931;52.164;5.518;2023-08-30T18:22:38;1.17;;;0.60;;
21539;SDS011;10931;52.164;5.518;2023-08-30T18:25:06;1.38;;;0.60;;
21539;SDS011;10931;52.164;5.518;2023-08-30T18:27:49;3.53;;;0.70;;
21539;SDS011;10931;52.164;5.518;2023-08-30T18:30:17;1.60;;;0.70;;
21539;SDS011;10931;52.164;5.518;2023-08-30T18:32:45;1.40;;;0.60;;
21539;SDS011;10931;52.164;5.518;2023-08-30T18:35:16;2.85;;;0.90;;
21539;SDS011;10931;52.164;5.518;2023-08-30T18:37:45;1.30;;;0.70;;
21539;SDS011;10931;52.164;5.518;2023-08-30T18:40:19;2.20;;;1.00;;
21539;SDS011;10931;52.164;5.518;2023-08-30T18:42:58;1.52;;;0.75;;
21539;SDS011;10931;52.164;5.518;2023-08-30T18:45:26;1.75;;;0.70;;
21539;SDS011;10931;52.164;5.518;2023-08-30T18:47:58;2.00;;;0.50;;
21539;SDS011;10931;52.164;5.518;2023-08-30T18:50:24;2.30;;;1.02;;
21539;SDS011;10931;52.164;5.518;2023-08-30T18:52:52;1.00;;;0.63;;
21539;SDS011;10931;52.164;5.518;2023-08-30T18:55:48;1.52;;;0.70;;
21539;SDS011;10931;52.164;5.518;2023-08-30T18:58:17;0.90;;;0.63;;
21539;SDS011;10931;52.164;5.518;2023-08-30T19:00:47;1.70;;;0.80;;
21539;SDS011;10931;52.164;5.518;2023-08-30T19:03:13;0.98;;;0.70;;
21539;SDS011;10931;52.164;5.518;2023-08-30T19:05:45;1.67;;;0.60;;
21539;SDS011;10931;52.164;5.518;2023-08-30T19:08:21;2.17;;;0.60;;
21539;SDS011;10931;52.164;5.518;2023-08-30T19:20:28;0.52;;;0.52;;
21539;SDS011;10931;52.164;5.518;2023-08-30T19:23:02;2.40;;;0.98;;
21539;SDS011;10931;52.164;5.518;2023-08-30T19:25:46;2.47;;;0.73;;
21539;SDS011;10931;52.164;5.518;2023-08-30T19:45:22;0.80;;;0.60;;
21539;SDS011;10931;52.164;5.518;2023-08-30T19:47:55;1.83;;;0.80;;
21539;SDS011;10931;52.164;5.518;2023-08-30T19:50:28;1.42;;;0.60;;
21539;SDS011;10931;52.164;5.518;2023-08-30T19:53:04;1.52;;;0.70;;
21539;SDS011;10931;52.164;5.518;2023-08-30T19:55:36;2.85;;;0.88;;
21539;SDS011;10931;52.164;5.518;2023-08-30T19:58:08;1.88;;;0.77;;
21539;SDS011;10931;52.164;5.518;2023-08-30T20:04:11;3.35;;;0.70;;
21539;SDS011;10931;52.164;5.518;2023-08-30T20:06:42;1.55;;;0.60;;
21539;SDS011;10931;52.164;5.518;2023-08-30T20:09:11;2.00;;;0.80;;
21539;SDS011;10931;52.164;5.518;2023-08-30T20:12:01;2.05;;;0.95;;
21539;SDS011;10931;52.164;5.518;2023-08-30T20:14:56;1.52;;;0.80;;
21539;SDS011;10931;52.164;5.518;2023-08-30T20:17:38;2.08;;;0.88;;
21539;SDS011;10931;52.164;5.518;2023-08-30T20:20:13;2.00;;;0.98;;
21539;SDS011;10931;52.164;5.518;2023-08-30T20:23:04;1.10;;;0.60;;
21539;SDS011;10931;52.164;5.518;2023-08-30T20:25:40;1.67;;;0.70;;
21539;SDS011;10931;52.164;5.518;2023-08-30T20:28:20;1.35;;;0.75;;
21539;SDS011;10931;52.164;5.518;2023-08-30T20:30:55;0.70;;;0.57;;
21539;SDS011;10931;52.164;5.518;2023-08-30T20:33:32;1.40;;;0.70;;
21539;SDS011;10931;52.164;5.518;2023-08-30T20:36:07;2.22;;;0.80;;
21539;SDS011;10931;52.164;5.518;2023-08-30T20:38:33;0.82;;;0.63;;
21539;SDS011;10931;52.164;5.518;2023-08-30T20:41:01;1.48;;;0.90;;
21539;SDS011;10931;52.164;5.518;2023-08-30T20:43:28;2.00;;;0.80;;
21539;SDS011;10931;52.164;5.518;2023-08-30T20:45:54;1.70;;;0.80;;
21539;SDS011;10931;52.164;5.518;2023-08-30T20:54:07;2.20;;;0.60;;
21539;SDS011;10931;52.164;5.518;2023-08-30T20:56:38;2.42;;;0.77;;
21539;SDS011;10931;52.164;5.518;2023-08-30T20:59:07;1.50;;;0.70;;
21539;SDS011;10931;52.164;5.518;2023-08-30T21:01:32;1.23;;;0.75;;
21539;SDS011;10931;52.164;5.518;2023-08-30T21:03:58;1.60;;;0.55;;